sensor_id;sensor_type;location;lat;lon;timestamp;P1;durP1;ratioP1;P2;durP2;ratioP2
4174;SDS011;2101;48.290;14.382;2023-10-09T00:00:32;21.37;;;1.80;;
4174;SDS011;2101;48.290;14.382;2023-10-09T00:03:55;23.53;;;2.23;;
4174;SDS011;2101;48.290;14.382;2023-10-09T00:06:57;23.90;;;2.10;;
4174;SDS011;2101;48.290;14.382;2023-10-09T00:09:46;22.60;;;2.10;;
4174;SDS011;2101;48.290;14.382;2023-10-09T00:12:57;21.47;;;1.90;;
4174;SDS011;2101;48.290;14.382;2023-10-09T00:16:32;23.40;;;2.03;;
4174;SDS011;2101;48.290;14.382;2023-10-09T00:19:55;22.20;;;2.33;;
4174;SDS011;2101;48.290;14.382;2023-10-09T00:34:23;22.00;;;2.00;;
4174;SDS011;2101;48.290;14.382;2023-10-09T00:37:49;22.73;;;2.00;;
4174;SDS011;2101;48.290;14.382;2023-10-09T00:40:23;21.60;;;1.67;;
4174;SDS011;2101;48.290;14.382;2023-10-09T00:42:56;21.73;;;1.70;;
4174;SDS011;2101;48.290;14.382;2023-10-09T00:45:27;21.57;;;1.43;;
4174;SDS011;2101;48.290;14.382;2023-10-09T00:47:57;21.70;;;1.67;;
4174;SDS011;2101;48.290;14.382;2023-10-09T00:50:28;22.87;;;1.43;;
4174;SDS011;2101;48.290;14.382;2023-10-09T00:53:00;22.67;;;1.67;;
4174;SDS011;2101;48.290;14.382;2023-10-09T00:55:29;21.30;;;1.40;;
4174;SDS011;2101;48.290;14.382;2023-10-09T00:58:30;21.20;;;1.37;;
4174;SDS011;2101;48.290;14.382;2023-10-09T01:01:01;22.03;;;1.37;;
4174;SDS011;2101;48.290;14.382;2023-10-09T01:03:29;21.03;;;1.20;;
4174;SDS011;2101;48.290;14.382;2023-10-09T01:06:00;25.13;;;1.83;;
4174;SDS011;2101;48.290;14.382;2023-10-09T01:08:33;21.73;;;1.67;;
4174;SDS011;2101;48.290;14.382;2023-10-09T01:11:00;20.37;;;1.13;;
4174;SDS011;2101;48.290;14.382;2023-10-09T01:13:46;21.37;;;1.17;;
4174;SDS011;2101;48.290;14.382;2023-10-09T01:16:13;21.53;;;1.30;;
4174;SDS011;2101;48.290;14.382;2023-10-09T01:18:52;20.90;;;1.27;;
4174;SDS011;2101;48.290;14.382;2023-10-09T01:21:22;20.67;;;1.20;;
4174;SDS011;2101;48.290;14.382;2023-10-09T01:23:50;22.07;;;1.57;;
4174;SDS011;2101;48.290;14.382;2023-10-09T01:26:46;21.10;;;1.40;;
4174;SDS011;2101;48.290;14.382;2023-10-09T01:29:15;20.10;;;1.10;;
4174;SDS011;2101;48.290;14.382;2023-10-09T01:36:49;21.17;;;1.60;;
4174;SDS011;2101;48.290;14.382;2023-10-09T01:39:30;20.80;;;1.40;;
4174;SDS011;2101;48.290;14.382;2023-10-09T01:41:57;24.20;;;1.67;;
4174;SDS011;2101;48.290;14.382;2023-10-09T01:44:27;22.00;;;1.80;;
4174;SDS011;2101;48.290;14.382;2023-10-09T01:47:06;21.20;;;1.50;;
4174;SDS011;2101;48.290;14.382;2023-10-09T01:49:39;22.10;;;1.77;;
4174;SDS011;2101;48.290;14.382;2023-10-09T01:52:09;21.27;;;1.40;;
4174;SDS011;2101;48.290;14.382;2023-10-09T01:54:41;20.90;;;1.20;;
4174;SDS011;2101;48.290;14.382;2023-10-09T01:57:19;21.50;;;1.47;;
4174;SDS011;2101;48.290;14.382;2023-10-09T01:59:48;24.63;;;1.80;;
4174;SDS011;2101;48.290;14.382;2023-10-09T02:02:18;22.20;;;1.77;;
4174;SDS011;2101;48.290;14.382;2023-10-09T02:05:03;23.03;;;1.87;;
4174;SDS011;2101;48.290;14.382;2023-10-09T02:07:34;21.80;;;1.70;;
4174;SDS011;2101;48.290;14.382;2023-10-09T02:10:09;21.00;;;1.40;;
4174;SDS011;2101;48.290;14.382;2023-10-09T02:15:40;22.20;;;1.80;;
4174;SDS011;2101;48.290;14.382;2023-10-09T02:18:09;23.43;;;1.73;;
4174;SDS011;2101;48.290;14.382;2023-10-09T02:23:37;25.20;;;2.00;;
4174;SDS011;2101;48.290;14.382;2023-10-09T02:26:04;21.63;;;1.80;;
4174;SDS011;2101;48.290;14.382;2023-10-09T02:28:34;21.80;;;1.70;;
4174;SDS011;2101;48.290;14.382;2023-10-09T02:31:01;21.10;;;1.57;;
4174;SDS011;2101;48.290;14.382;2023-10-09T02:33:35;22.37;;;1.80;;
4174;SDS011;2101;48.290;14.382;2023-10-09T02:36:04;21.90;;;1.80;;
4174;SDS011;2101;48.290;14.382;2023-10-09T02:38:33;23.50;;;1.97;;
4174;SDS011;2101;48.290;14.382;2023-10-09T02:41:02;21.10;;;1.20;;
4174;SDS011;2101;48.290;14.382;2023-10-09T02:43:28;22.50;;;1.80;;
4174;SDS011;2101;48.290;14.382;2023-10-09T02:46:06;22.27;;;1.53;;
4174;SDS011;2101;48.290;14.382;2023-10-09T02:48:43;21.93;;;1.50;;
4174;SDS011;2101;48.290;14.382;2023-10-09T02:51:16;21.20;;;1.30;;
4174;SDS011;2101;48.290;14.382;2023-10-09T02:53:55;20.77;;;1.27;;
4174;SDS011;2101;48.290;14.382;2023-10-09T02:56:22;20.27;;;1.10;;
4174;SDS011;2101;48.290;14.382;2023-10-09T02:58:52;22.87;;;1.73;;
4174;SDS011;2101;48.290;14.382;2023-10-09T03:01:18;23.63;;;1.73;;
4174;SDS011;2101;48.290;14.382;2023-10-09T03:03:44;22.10;;;1.73;;
4174;SDS011;2101;48.290;14.382;2023-10-09T03:06:15;23.10;;;2.30;;
4174;SDS011;2101;48.290;14.382;2023-10-09T03:08:53;25.20;;;2.00;;
4174;SDS011;2101;48.290;14.382;2023-10-09T03:11:20;23.63;;;2.30;;
4174;SDS011;2101;48.290;14.382;2023-10-09T03:13:46;22.90;;;2.47;;
4174;SDS011;2101;48.290;14.382;2023-10-09T03:16:12;22.20;;;1.87;;
4174;SDS011;2101;48.290;14.382;2023-10-09T03:18:45;21.97;;;2.00;;
4174;SDS011;2101;48.290;14.382;2023-10-09T03:21:19;22.40;;;1.70;;
4174;SDS011;2101;48.290;14.382;2023-10-09T03:23:46;24.77;;;1.87;;
4174;SDS011;2101;48.290;14.382;2023-10-09T03:26:16;21.47;;;1.73;;
4174;SDS011;2101;48.290;14.382;2023-10-09T03:28:46;22.03;;;1.77;;
4174;SDS011;2101;48.290;14.382;2023-10-09T03:31:12;24.17;;;1.80;;
4174;SDS011;2101;48.290;14.382;2023-10-09T03:33:38;20.73;;;1.40;;
4174;SDS011;2101;48.290;14.382;2023-10-09T03:36:05;21.47;;;1.60;;
4174;SDS011;2101;48.290;14.382;2023-10-09T03:38:34;21.43;;;1.47;;
4174;SDS011;2101;48.290;14.382;2023-10-09T03:41:04;21.43;;;1.70;;
4174;SDS011;2101;48.290;14.382;2023-10-09T03:43:34;21.23;;;1.80;;
4174;SDS011;2101;48.290;14.382;2023-10-09T03:46:08;21.87;;;1.60;;
4174;SDS011;2101;48.290;14.382;2023-10-09T03:48:47;20.87;;;1.60;;
4174;SDS011;2101;48.290;14.382;2023-10-09T03:51:13;21.40;;;1.77;;
4174;SDS011;2101;48.290;14.382;2023-10-09T03:53:49;21.00;;;1.53;;
4174;SDS011;2101;48.290;14.382;2023-10-09T03:56:16;21.40;;;1.50;;
4174;SDS011;2101;48.290;14.382;2023-10-09T03:58:46;20.87;;;1.53;;
4174;SDS011;2101;48.290;14.382;2023-10-09T04:01:16;22.30;;;1.70;;
4174;SDS011;2101;48.290;14.382;2023-10-09T04:03:47;21.97;;;1.87;;
4174;SDS011;2101;48.290;14.382;2023-10-09T04:06:12;24.53;;;1.70;;
4174;SDS011;2101;48.290;14.382;2023-10-09T04:08:38;21.53;;;1.60;;
4174;SDS011;2101;48.290;14.382;2023-10-09T04:11:12;24.13;;;1.60;;
4174;SDS011;2101;48.290;14.382;2023-10-09T04:13:44;21.60;;;1.70;;
4174;SDS011;2101;48.290;14.382;2023-10-09T04:16:14;24.90;;;1.67;;
4174;SDS011;2101;48.290;14.382;2023-10-09T04:18:55;21.10;;;1.40;;
4174;SDS011;2101;48.290;14.382;2023-10-09T04:21:24;22.57;;;1.50;;
4174;SDS011;2101;48.290;14.382;2023-10-09T04:24:02;21.20;;;1.63;;
4174;SDS011;2101;48.290;14.382;2023-10-09T04:26:37;21.43;;;1.43;;
4174;SDS011;2101;48.290;14.382;2023-10-09T04:29:12;21.80;;;1.60;;
4174;SDS011;2101;48.290;14.382;2023-10-09T04:32:05;21.60;;;1.80;;
4174;SDS011;2101;48.290;14.382;2023-10-09T04:34:41;26.33;;;2.17;;
4174;SDS011;2101;48.290;14.382;2023-10-09T04:37:30;21.13;;;1.70;;
4174;SDS011;2101;48.290;14.382;2023-10-09T04:40:03;22.30;;;1.67;;
4174;SDS011;2101;48.290;14.382;2023-10-09T04:42:58;21.30;;;1.70;;
4174;SDS011;2101;48.290;14.382;2023-10-09T04:45:24;22.60;;;1.77;;
4174;SDS011;2101;48.290;14.382;2023-10-09T04:48:10;20.77;;;1.37;;
4174;SDS011;2101;48.290;14.382;2023-10-09T04:50:36;21.20;;;1.67;;
4174;SDS011;2101;48.290;14.382;2023-10-09T04:53:22;23.37;;;2.00;;
4174;SDS011;2101;48.290;14.382;2023-10-09T04:55:48;21.73;;;1.60;;
4174;SDS011;2101;48.290;14.382;2023-10-09T04:58:22;21.43;;;1.83;;
4174;SDS011;2101;48.290;14.382;2023-10-09T05:00:51;21.17;;;1.63;;
4174;SDS011;2101;48.290;14.382;2023-10-09T05:03:41;22.20;;;1.97;;
4174;SDS011;2101;48.290;14.382;2023-10-09T05:06:06;21.53;;;1.80;;
4174;SDS011;2101;48.290;14.382;2023-10-09T05:08:51;21.47;;;1.80;;
4174;SDS011;2101;48.290;14.382;2023-10-09T05:11:21;22.73;;;1.73;;
4174;SDS011;2101;48.290;14.382;2023-10-09T05:14:01;23.60;;;1.80;;
4174;SDS011;2101;48.290;14.382;2023-10-09T05:16:39;21.80;;;1.87;;
4174;SDS011;2101;48.290;14.382;2023-10-09T05:19:39;22.20;;;1.90;;
4174;SDS011;2101;48.290;14.382;2023-10-09T05:22:45;21.80;;;1.80;;
4174;SDS011;2101;48.290;14.382;2023-10-09T05:25:31;25.50;;;1.83;;
4174;SDS011;2101;48.290;14.382;2023-10-09T05:28:34;21.80;;;1.67;;
4174;SDS011;2101;48.290;14.382;2023-10-09T05:31:23;21.50;;;1.67;;
4174;SDS011;2101;48.290;14.382;2023-10-09T05:34:10;21.97;;;1.70;;
4174;SDS011;2101;48.290;14.382;2023-10-09T05:36:45;22.10;;;1.70;;
4174;SDS011;2101;48.290;14.382;2023-10-09T05:39:13;23.17;;;1.83;;
4174;SDS011;2101;48.290;14.382;2023-10-09T05:42:09;23.30;;;2.03;;
4174;SDS011;2101;48.290;14.382;2023-10-09T05:44:37;23.00;;;1.70;;
4174;SDS011;2101;48.290;14.382;2023-10-09T05:47:21;23.13;;;1.83;;
4174;SDS011;2101;48.290;14.382;2023-10-09T05:50:00;23.10;;;1.90;;
4174;SDS011;2101;48.290;14.382;2023-10-09T05:52:38;22.50;;;2.00;;
4174;SDS011;2101;48.290;14.382;2023-10-09T05:55:04;22.53;;;2.27;;
4174;SDS011;2101;48.290;14.382;2023-10-09T05:57:51;25.03;;;2.00;;
4174;SDS011;2101;48.290;14.382;2023-10-09T06:00:36;21.60;;;1.83;;
4174;SDS011;2101;48.290;14.382;2023-10-09T06:03:20;21.53;;;1.90;;
4174;SDS011;2101;48.290;14.382;2023-10-09T06:05:53;21.80;;;2.07;;
4174;SDS011;2101;48.290;14.382;2023-10-09T06:08:26;23.37;;;1.93;;
4174;SDS011;2101;48.290;14.382;2023-10-09T06:11:14;35.63;;;1.70;;
4174;SDS011;2101;48.290;14.382;2023-10-09T06:13:59;23.10;;;2.10;;
4174;SDS011;2101;48.290;14.382;2023-10-09T06:16:35;22.50;;;2.00;;
4174;SDS011;2101;48.290;14.382;2023-10-09T06:19:09;23.43;;;1.70;;
4174;SDS011;2101;48.290;14.382;2023-10-09T06:21:45;26.33;;;2.00;;
4174;SDS011;2101;48.290;14.382;2023-10-09T06:24:17;22.70;;;2.13;;
4174;SDS011;2101;48.290;14.382;2023-10-09T06:26:47;27.43;;;2.40;;
4174;SDS011;2101;48.290;14.382;2023-10-09T06:29:27;35.33;;;2.57;;
4174;SDS011;2101;48.290;14.382;2023-10-09T06:32:01;28.33;;;2.20;;
4174;SDS011;2101;48.290;14.382;2023-10-09T06:34:46;26.53;;;2.10;;
4174;SDS011;2101;48.290;14.382;2023-10-09T06:37:40;24.43;;;2.40;;
4174;SDS011;2101;48.290;14.382;2023-10-09T06:40:26;23.87;;;1.80;;
4174;SDS011;2101;48.290;14.382;2023-10-09T06:43:13;21.07;;;1.70;;
4174;SDS011;2101;48.290;14.382;2023-10-09T06:45:43;28.30;;;2.00;;
4174;SDS011;2101;48.290;14.382;2023-10-09T06:48:09;28.53;;;2.20;;
4174;SDS011;2101;48.290;14.382;2023-10-09T06:50:55;27.70;;;2.10;;
4174;SDS011;2101;48.290;14.382;2023-10-09T06:53:46;23.27;;;1.70;;
4174;SDS011;2101;48.290;14.382;2023-10-09T06:56:21;21.63;;;1.77;;
4174;SDS011;2101;48.290;14.382;2023-10-09T06:58:54;21.50;;;1.87;;
4174;SDS011;2101;48.290;14.382;2023-10-09T07:01:41;22.70;;;2.00;;
4174;SDS011;2101;48.290;14.382;2023-10-09T07:04:08;25.83;;;2.03;;
4174;SDS011;2101;48.290;14.382;2023-10-09T07:07:05;27.00;;;1.90;;
4174;SDS011;2101;48.290;14.382;2023-10-09T07:09:38;21.30;;;1.47;;
4174;SDS011;2101;48.290;14.382;2023-10-09T07:12:22;23.93;;;2.20;;
4174;SDS011;2101;48.290;14.382;2023-10-09T07:14:51;24.97;;;1.67;;
4174;SDS011;2101;48.290;14.382;2023-10-09T07:17:38;26.17;;;2.27;;
4174;SDS011;2101;48.290;14.382;2023-10-09T07:20:04;21.10;;;1.47;;
4174;SDS011;2101;48.290;14.382;2023-10-09T07:22:35;23.30;;;2.00;;
4174;SDS011;2101;48.290;14.382;2023-10-09T07:25:22;25.40;;;2.03;;
4174;SDS011;2101;48.290;14.382;2023-10-09T07:28:07;26.20;;;1.77;;
4174;SDS011;2101;48.290;14.382;2023-10-09T07:30:49;25.93;;;2.07;;
4174;SDS011;2101;48.290;14.382;2023-10-09T07:33:22;21.83;;;1.57;;
4174;SDS011;2101;48.290;14.382;2023-10-09T07:35:56;23.50;;;1.90;;
4174;SDS011;2101;48.290;14.382;2023-10-09T07:38:31;26.23;;;2.30;;
4174;SDS011;2101;48.290;14.382;2023-10-09T07:41:09;24.90;;;2.33;;
4174;SDS011;2101;48.290;14.382;2023-10-09T07:43:41;21.80;;;1.93;;
4174;SDS011;2101;48.290;14.382;2023-10-09T07:46:13;23.10;;;2.13;;
4174;SDS011;2101;48.290;14.382;2023-10-09T07:49:05;24.80;;;2.10;;
4174;SDS011;2101;48.290;14.382;2023-10-09T07:51:34;24.80;;;2.00;;
4174;SDS011;2101;48.290;14.382;2023-10-09T07:54:01;21.90;;;1.80;;
4174;SDS011;2101;48.290;14.382;2023-10-09T07:56:37;22.30;;;2.03;;
4174;SDS011;2101;48.290;14.382;2023-10-09T07:59:05;25.87;;;2.00;;
4174;SDS011;2101;48.290;14.382;2023-10-09T08:01:43;26.13;;;2.03;;
4174;SDS011;2101;48.290;14.382;2023-10-09T08:04:42;25.30;;;2.10;;
4174;SDS011;2101;48.290;14.382;2023-10-09T08:07:15;22.17;;;1.93;;
4174;SDS011;2101;48.290;14.382;2023-10-09T08:10:14;24.33;;;2.50;;
4174;SDS011;2101;48.290;14.382;2023-10-09T08:12:43;26.80;;;2.60;;
4174;SDS011;2101;48.290;14.382;2023-10-09T08:15:15;22.17;;;2.07;;
4174;SDS011;2101;48.290;14.382;2023-10-09T08:17:50;24.10;;;2.27;;
4174;SDS011;2101;48.290;14.382;2023-10-09T08:20:28;22.33;;;2.30;;
4174;SDS011;2101;48.290;14.382;2023-10-09T08:23:15;24.70;;;2.30;;
4174;SDS011;2101;48.290;14.382;2023-10-09T08:26:04;26.30;;;2.17;;
4174;SDS011;2101;48.290;14.382;2023-10-09T08:28:53;26.40;;;2.87;;
4174;SDS011;2101;48.290;14.382;2023-10-09T08:31:51;35.03;;;3.20;;
4174;SDS011;2101;48.290;14.382;2023-10-09T08:34:22;24.50;;;2.30;;
4174;SDS011;2101;48.290;14.382;2023-10-09T08:36:51;22.80;;;2.30;;
4174;SDS011;2101;48.290;14.382;2023-10-09T08:39:20;28.83;;;2.97;;
4174;SDS011;2101;48.290;14.382;2023-10-09T08:41:55;30.43;;;3.37;;
4174;SDS011;2101;48.290;14.382;2023-10-09T08:44:24;32.30;;;3.23;;
4174;SDS011;2101;48.290;14.382;2023-10-09T08:46:55;25.93;;;2.90;;
4174;SDS011;2101;48.290;14.382;2023-10-09T08:49:23;25.83;;;2.83;;
4174;SDS011;2101;48.290;14.382;2023-10-09T08:51:53;25.57;;;2.70;;
4174;SDS011;2101;48.290;14.382;2023-10-09T08:54:28;33.60;;;2.80;;
4174;SDS011;2101;48.290;14.382;2023-10-09T08:57:03;27.30;;;4.17;;
4174;SDS011;2101;48.290;14.382;2023-10-09T08:59:29;34.10;;;3.30;;
4174;SDS011;2101;48.290;14.382;2023-10-09T09:01:58;26.07;;;2.97;;
4174;SDS011;2101;48.290;14.382;2023-10-09T09:04:36;33.77;;;3.00;;
4174;SDS011;2101;48.290;14.382;2023-10-09T09:07:05;34.30;;;2.70;;
4174;SDS011;2101;48.290;14.382;2023-10-09T09:09:54;28.03;;;3.07;;
4174;SDS011;2101;48.290;14.382;2023-10-09T09:12:42;26.93;;;3.03;;
4174;SDS011;2101;48.290;14.382;2023-10-09T09:15:16;33.27;;;2.93;;
4174;SDS011;2101;48.290;14.382;2023-10-09T09:17:51;27.97;;;2.50;;
4174;SDS011;2101;48.290;14.382;2023-10-09T09:20:34;32.40;;;3.07;;
4174;SDS011;2101;48.290;14.382;2023-10-09T09:23:05;29.53;;;4.03;;
4174;SDS011;2101;48.290;14.382;2023-10-09T09:25:46;31.70;;;2.57;;
4174;SDS011;2101;48.290;14.382;2023-10-09T09:28:24;25.10;;;2.20;;
4174;SDS011;2101;48.290;14.382;2023-10-09T09:30:52;36.37;;;2.87;;
4174;SDS011;2101;48.290;14.382;2023-10-09T09:33:23;28.10;;;3.23;;
4174;SDS011;2101;48.290;14.382;2023-10-09T09:36:05;27.27;;;3.13;;
4174;SDS011;2101;48.290;14.382;2023-10-09T09:38:34;60.73;;;3.83;;
4174;SDS011;2101;48.290;14.382;2023-10-09T09:41:13;33.43;;;3.10;;
4174;SDS011;2101;48.290;14.382;2023-10-09T09:43:58;27.77;;;3.73;;
4174;SDS011;2101;48.290;14.382;2023-10-09T09:46:33;28.43;;;3.37;;
4174;SDS011;2101;48.290;14.382;2023-10-09T09:49:00;31.43;;;3.30;;
4174;SDS011;2101;48.290;14.382;2023-10-09T09:51:29;31.87;;;3.80;;
4174;SDS011;2101;48.290;14.382;2023-10-09T09:53:58;30.77;;;4.07;;
4174;SDS011;2101;48.290;14.382;2023-10-09T09:56:27;31.10;;;4.77;;
4174;SDS011;2101;48.290;14.382;2023-10-09T09:58:56;30.53;;;4.07;;
4174;SDS011;2101;48.290;14.382;2023-10-09T10:01:28;32.30;;;4.87;;
4174;SDS011;2101;48.290;14.382;2023-10-09T10:04:05;34.33;;;4.70;;
4174;SDS011;2101;48.290;14.382;2023-10-09T10:06:37;29.60;;;4.60;;
4174;SDS011;2101;48.290;14.382;2023-10-09T10:09:06;34.47;;;4.50;;
4174;SDS011;2101;48.290;14.382;2023-10-09T10:11:45;26.40;;;4.10;;
4174;SDS011;2101;48.290;14.382;2023-10-09T10:14:19;35.03;;;4.70;;
4174;SDS011;2101;48.290;14.382;2023-10-09T10:17:04;38.40;;;5.00;;
4174;SDS011;2101;48.290;14.382;2023-10-09T10:22:39;31.53;;;4.07;;
4174;SDS011;2101;48.290;14.382;2023-10-09T10:25:31;32.50;;;3.73;;
4174;SDS011;2101;48.290;14.382;2023-10-09T10:28:19;38.37;;;4.03;;
4174;SDS011;2101;48.290;14.382;2023-10-09T10:31:07;36.90;;;4.60;;
4174;SDS011;2101;48.290;14.382;2023-10-09T10:36:21;33.30;;;4.17;;
4174;SDS011;2101;48.290;14.382;2023-10-09T10:39:04;32.93;;;4.03;;
4174;SDS011;2101;48.290;14.382;2023-10-09T10:41:35;40.00;;;4.20;;
4174;SDS011;2101;48.290;14.382;2023-10-09T10:44:23;42.43;;;4.30;;
4174;SDS011;2101;48.290;14.382;2023-10-09T10:46:59;31.27;;;3.90;;
4174;SDS011;2101;48.290;14.382;2023-10-09T10:49:30;37.67;;;3.80;;
4174;SDS011;2101;48.290;14.382;2023-10-09T10:52:02;43.37;;;4.97;;
4174;SDS011;2101;48.290;14.382;2023-10-09T10:54:42;37.70;;;4.50;;
4174;SDS011;2101;48.290;14.382;2023-10-09T10:57:17;39.50;;;4.63;;
4174;SDS011;2101;48.290;14.382;2023-10-09T10:59:53;39.80;;;5.47;;
4174;SDS011;2101;48.290;14.382;2023-10-09T11:02:43;38.20;;;4.80;;
4174;SDS011;2101;48.290;14.382;2023-10-09T11:05:09;49.57;;;5.07;;
4174;SDS011;2101;48.290;14.382;2023-10-09T11:07:49;47.47;;;4.90;;
4174;SDS011;2101;48.290;14.382;2023-10-09T11:10:22;39.73;;;4.00;;
4174;SDS011;2101;48.290;14.382;2023-10-09T11:12:56;31.57;;;3.60;;
4174;SDS011;2101;48.290;14.382;2023-10-09T11:15:32;29.30;;;3.90;;
4174;SDS011;2101;48.290;14.382;2023-10-09T11:18:18;39.73;;;4.40;;
4174;SDS011;2101;48.290;14.382;2023-10-09T11:20:44;41.83;;;4.20;;
4174;SDS011;2101;48.290;14.382;2023-10-09T11:23:28;32.07;;;4.23;;
4174;SDS011;2101;48.290;14.382;2023-10-09T11:26:18;37.43;;;4.03;;
4174;SDS011;2101;48.290;14.382;2023-10-09T11:29:07;45.93;;;4.73;;
4174;SDS011;2101;48.290;14.382;2023-10-09T11:31:40;42.43;;;4.87;;
4174;SDS011;2101;48.290;14.382;2023-10-09T11:34:19;41.80;;;4.23;;
4174;SDS011;2101;48.290;14.382;2023-10-09T11:36:57;34.97;;;4.27;;
4174;SDS011;2101;48.290;14.382;2023-10-09T11:39:31;36.73;;;3.37;;
4174;SDS011;2101;48.290;14.382;2023-10-09T11:44:39;29.30;;;3.47;;
4174;SDS011;2101;48.290;14.382;2023-10-09T11:47:09;34.80;;;3.53;;
4174;SDS011;2101;48.290;14.382;2023-10-09T11:49:53;34.37;;;3.30;;
4174;SDS011;2101;48.290;14.382;2023-10-09T11:52:25;31.90;;;3.40;;
4174;SDS011;2101;48.290;14.382;2023-10-09T11:55:04;33.23;;;2.60;;
4174;SDS011;2101;48.290;14.382;2023-10-09T11:57:40;33.83;;;3.10;;
4174;SDS011;2101;48.290;14.382;2023-10-09T12:00:06;35.53;;;2.90;;
4174;SDS011;2101;48.290;14.382;2023-10-09T12:02:54;39.23;;;3.90;;
4174;SDS011;2101;48.290;14.382;2023-10-09T12:05:33;30.20;;;3.30;;
4174;SDS011;2101;48.290;14.382;2023-10-09T12:07:59;32.60;;;3.63;;
4174;SDS011;2101;48.290;14.382;2023-10-09T12:10:26;29.87;;;3.60;;
4174;SDS011;2101;48.290;14.382;2023-10-09T12:12:53;28.30;;;2.97;;
4174;SDS011;2101;48.290;14.382;2023-10-09T12:15:19;35.27;;;3.50;;
4174;SDS011;2101;48.290;14.382;2023-10-09T12:17:45;26.93;;;3.20;;
4174;SDS011;2101;48.290;14.382;2023-10-09T12:20:15;36.90;;;3.70;;
4174;SDS011;2101;48.290;14.382;2023-10-09T12:22:57;33.50;;;3.97;;
4174;SDS011;2101;48.290;14.382;2023-10-09T12:25:24;35.70;;;3.53;;
4174;SDS011;2101;48.290;14.382;2023-10-09T12:28:00;28.83;;;3.13;;
4174;SDS011;2101;48.290;14.382;2023-10-09T12:30:30;36.43;;;3.93;;
4174;SDS011;2101;48.290;14.382;2023-10-09T12:33:03;39.73;;;3.63;;
4174;SDS011;2101;48.290;14.382;2023-10-09T12:35:32;28.60;;;3.07;;
4174;SDS011;2101;48.290;14.382;2023-10-09T12:38:05;31.23;;;3.00;;
4174;SDS011;2101;48.290;14.382;2023-10-09T12:40:35;32.53;;;3.97;;
4174;SDS011;2101;48.290;14.382;2023-10-09T12:43:03;34.13;;;3.23;;
4174;SDS011;2101;48.290;14.382;2023-10-09T12:45:33;32.20;;;3.30;;
4174;SDS011;2101;48.290;14.382;2023-10-09T12:47:59;29.77;;;3.37;;
4174;SDS011;2101;48.290;14.382;2023-10-09T12:50:34;28.80;;;3.30;;
4174;SDS011;2101;48.290;14.382;2023-10-09T12:53:00;30.07;;;3.73;;
4174;SDS011;2101;48.290;14.382;2023-10-09T12:55:38;36.60;;;4.00;;
4174;SDS011;2101;48.290;14.382;2023-10-09T12:58:10;36.10;;;3.77;;
4174;SDS011;2101;48.290;14.382;2023-10-09T13:00:41;38.10;;;3.80;;
4174;SDS011;2101;48.290;14.382;2023-10-09T13:03:14;28.40;;;3.23;;
4174;SDS011;2101;48.290;14.382;2023-10-09T13:05:47;32.23;;;3.27;;
4174;SDS011;2101;48.290;14.382;2023-10-09T13:08:19;31.50;;;3.80;;
4174;SDS011;2101;48.290;14.382;2023-10-09T13:10:47;29.13;;;3.00;;
4174;SDS011;2101;48.290;14.382;2023-10-09T13:13:27;46.37;;;3.53;;
4174;SDS011;2101;48.290;14.382;2023-10-09T13:16:10;34.90;;;4.13;;
4174;SDS011;2101;48.290;14.382;2023-10-09T13:18:48;33.73;;;3.90;;
4174;SDS011;2101;48.290;14.382;2023-10-09T13:21:22;34.90;;;3.30;;
4174;SDS011;2101;48.290;14.382;2023-10-09T13:23:49;32.20;;;3.57;;
4174;SDS011;2101;48.290;14.382;2023-10-09T13:26:16;34.97;;;4.30;;
4174;SDS011;2101;48.290;14.382;2023-10-09T13:28:45;41.97;;;4.37;;
4174;SDS011;2101;48.290;14.382;2023-10-09T13:31:15;35.33;;;4.00;;
4174;SDS011;2101;48.290;14.382;2023-10-09T13:33:43;31.37;;;3.73;;
4174;SDS011;2101;48.290;14.382;2023-10-09T13:36:13;27.47;;;2.90;;
4174;SDS011;2101;48.290;14.382;2023-10-09T13:38:47;33.93;;;3.97;;
4174;SDS011;2101;48.290;14.382;2023-10-09T13:41:13;31.47;;;3.87;;
4174;SDS011;2101;48.290;14.382;2023-10-09T13:43:40;36.73;;;3.30;;
4174;SDS011;2101;48.290;14.382;2023-10-09T13:46:07;30.57;;;4.03;;
4174;SDS011;2101;48.290;14.382;2023-10-09T13:48:34;37.30;;;4.03;;
4174;SDS011;2101;48.290;14.382;2023-10-09T13:51:07;37.37;;;3.70;;
4174;SDS011;2101;48.290;14.382;2023-10-09T13:53:38;48.77;;;4.40;;
4174;SDS011;2101;48.290;14.382;2023-10-09T13:56:19;30.30;;;3.20;;
4174;SDS011;2101;48.290;14.382;2023-10-09T13:58:46;39.03;;;4.77;;
4174;SDS011;2101;48.290;14.382;2023-10-09T14:01:20;33.80;;;3.70;;
4174;SDS011;2101;48.290;14.382;2023-10-09T14:03:58;35.37;;;3.90;;
4174;SDS011;2101;48.290;14.382;2023-10-09T14:06:25;41.77;;;3.93;;
4174;SDS011;2101;48.290;14.382;2023-10-09T14:09:01;28.93;;;3.20;;
4174;SDS011;2101;48.290;14.382;2023-10-09T14:11:34;30.70;;;3.93;;
4174;SDS011;2101;48.290;14.382;2023-10-09T14:14:04;36.03;;;4.23;;
4174;SDS011;2101;48.290;14.382;2023-10-09T14:16:37;34.80;;;3.90;;
4174;SDS011;2101;48.290;14.382;2023-10-09T14:19:08;33.53;;;4.43;;
4174;SDS011;2101;48.290;14.382;2023-10-09T14:21:38;27.47;;;3.37;;
4174;SDS011;2101;48.290;14.382;2023-10-09T14:24:06;33.00;;;3.07;;
4174;SDS011;2101;48.290;14.382;2023-10-09T14:26:42;31.77;;;4.33;;
4174;SDS011;2101;48.290;14.382;2023-10-09T14:29:12;34.07;;;3.80;;
4174;SDS011;2101;48.290;14.382;2023-10-09T14:31:45;33.40;;;3.20;;
4174;SDS011;2101;48.290;14.382;2023-10-09T14:34:25;26.20;;;2.90;;
4174;SDS011;2101;48.290;14.382;2023-10-09T14:36:57;33.87;;;3.97;;
4174;SDS011;2101;48.290;14.382;2023-10-09T14:39:25;29.33;;;3.80;;
4174;SDS011;2101;48.290;14.382;2023-10-09T14:41:54;34.43;;;3.60;;
4174;SDS011;2101;48.290;14.382;2023-10-09T14:44:22;34.43;;;3.80;;
4174;SDS011;2101;48.290;14.382;2023-10-09T14:46:53;33.90;;;4.00;;
4174;SDS011;2101;48.290;14.382;2023-10-09T14:49:23;55.57;;;4.30;;
4174;SDS011;2101;48.290;14.382;2023-10-09T14:51:52;36.90;;;3.23;;
4174;SDS011;2101;48.290;14.382;2023-10-09T14:54:18;26.47;;;3.10;;
4174;SDS011;2101;48.290;14.382;2023-10-09T14:56:44;34.10;;;4.77;;
4174;SDS011;2101;48.290;14.382;2023-10-09T14:59:11;29.70;;;3.73;;
4174;SDS011;2101;48.290;14.382;2023-10-09T15:01:44;28.17;;;4.00;;
4174;SDS011;2101;48.290;14.382;2023-10-09T15:04:09;36.90;;;4.37;;
4174;SDS011;2101;48.290;14.382;2023-10-09T15:06:42;36.00;;;4.40;;
4174;SDS011;2101;48.290;14.382;2023-10-09T15:09:07;37.27;;;3.47;;
4174;SDS011;2101;48.290;14.382;2023-10-09T15:11:34;32.03;;;4.40;;
4174;SDS011;2101;48.290;14.382;2023-10-09T15:14:03;31.23;;;3.93;;
4174;SDS011;2101;48.290;14.382;2023-10-09T15:16:31;29.27;;;3.93;;
4174;SDS011;2101;48.290;14.382;2023-10-09T15:19:00;28.83;;;3.60;;
4174;SDS011;2101;48.290;14.382;2023-10-09T15:21:28;32.60;;;4.37;;
4174;SDS011;2101;48.290;14.382;2023-10-09T15:23:58;48.30;;;7.73;;
4174;SDS011;2101;48.290;14.382;2023-10-09T15:26:24;37.23;;;3.53;;
4174;SDS011;2101;48.290;14.382;2023-10-09T15:28:53;39.30;;;7.50;;
4174;SDS011;2101;48.290;14.382;2023-10-09T15:31:19;34.43;;;5.40;;
4174;SDS011;2101;48.290;14.382;2023-10-09T15:33:49;32.27;;;4.50;;
4174;SDS011;2101;48.290;14.382;2023-10-09T15:36:17;28.03;;;3.67;;
4174;SDS011;2101;48.290;14.382;2023-10-09T15:38:45;30.50;;;4.20;;
4174;SDS011;2101;48.290;14.382;2023-10-09T15:41:12;31.77;;;4.57;;
4174;SDS011;2101;48.290;14.382;2023-10-09T15:43:40;35.20;;;4.00;;
4174;SDS011;2101;48.290;14.382;2023-10-09T15:46:12;34.53;;;3.57;;
4174;SDS011;2101;48.290;14.382;2023-10-09T15:48:42;40.23;;;4.13;;
4174;SDS011;2101;48.290;14.382;2023-10-09T15:51:13;28.97;;;2.73;;
4174;SDS011;2101;48.290;14.382;2023-10-09T15:53:41;30.30;;;3.30;;
4174;SDS011;2101;48.290;14.382;2023-10-09T15:56:07;33.83;;;3.37;;
4174;SDS011;2101;48.290;14.382;2023-10-09T15:58:35;33.47;;;3.97;;
4174;SDS011;2101;48.290;14.382;2023-10-09T16:01:01;31.87;;;3.80;;
4174;SDS011;2101;48.290;14.382;2023-10-09T16:03:26;34.37;;;3.23;;
4174;SDS011;2101;48.290;14.382;2023-10-09T16:05:52;33.53;;;3.50;;